createdAt,value
2019-03-19T00:03:17.226Z,23.80
2019-03-19T00:08:11.177Z,25.77
2019-03-19T00:13:05.246Z,20.23
2019-03-19T00:17:59.201Z,24.67
2019-03-19T00:22:53.153Z,18.43
2019-03-19T00:27:47.118Z,20.57
2019-03-19T00:32:41.152Z,20.13
2019-03-19T00:37:35.121Z,24.90
2019-03-19T00:42:29.074Z,19.97
2019-03-19T00:47:23.120Z,16.50
2019-03-19T00:52:17.099Z,13.17
2019-03-19T00:57:11.078Z,20.47
2019-03-19T01:02:05.039Z,21.17
2019-03-19T01:06:59.001Z,18.40
2019-03-19T01:11:53.285Z,13.40
2019-03-19T01:16:47.304Z,16.37
2019-03-19T01:21:41.269Z,17.70
2019-03-19T01:26:35.402Z,21.93
2019-03-19T01:31:29.380Z,19.73
2019-03-19T01:36:23.351Z,16.07
2019-03-19T01:41:17.427Z,22.10
2019-03-19T01:46:11.525Z,19.07
2019-03-19T01:51:05.502Z,17.63
2019-03-19T01:56:05.225Z,20.13
2019-03-19T02:00:55.405Z,14.17
2019-03-19T02:05:49.381Z,16.17
2019-03-19T02:10:43.361Z,15.40
2019-03-19T02:15:37.437Z,14.73
2019-03-19T02:20:31.501Z,17.30
2019-03-19T02:25:25.563Z,19.93
2019-03-19T02:30:19.591Z,12.00
2019-03-19T02:35:13.611Z,14.43
2019-03-19T02:40:13.057Z,19.07
2019-03-19T02:45:14.050Z,20.93
2019-03-19T02:50:13.637Z,20.80
2019-03-19T02:55:08.638Z,20.60
2019-03-19T03:00:09.445Z,16.90
2019-03-19T03:05:07.025Z,21.50
2019-03-19T03:10:01.231Z,28.80
2019-03-19T03:14:55.197Z,23.67
2019-03-19T03:19:49.173Z,22.33
2019-03-19T03:24:43.155Z,16.63
2019-03-19T03:29:37.115Z,21.07
2019-03-19T03:34:31.112Z,19.97
2019-03-19T03:39:25.083Z,21.07
2019-03-19T03:44:19.202Z,16.77
2019-03-19T03:49:13.314Z,21.37
2019-03-19T03:54:07.392Z,22.23
2019-03-19T03:59:01.632Z,23.27
2019-03-19T04:03:55.724Z,24.90
2019-03-19T04:08:49.814Z,19.37
2019-03-19T04:13:43.761Z,27.37
2019-03-19T04:18:37.779Z,21.87
2019-03-19T04:23:31.750Z,21.13
2019-03-19T04:28:25.736Z,24.60
2019-03-19T04:33:19.717Z,21.03
2019-03-19T04:38:13.676Z,29.63
2019-03-19T04:43:07.689Z,29.40
2019-03-19T04:48:03.484Z,29.23
2019-03-19T04:52:57.494Z,17.63
2019-03-19T04:57:51.460Z,23.43
2019-03-19T05:02:45.624Z,26.43
2019-03-19T05:07:39.695Z,31.20
2019-03-19T05:12:33.677Z,22.80
2019-03-19T05:17:27.708Z,24.27
2019-03-19T05:22:21.692Z,31.50
2019-03-19T05:27:15.683Z,23.80
2019-03-19T05:32:09.796Z,33.07
2019-03-19T05:37:03.869Z,25.37
2019-03-19T05:41:57.826Z,30.93
2019-03-19T05:46:51.814Z,37.47
2019-03-19T05:51:45.795Z,31.17
2019-03-19T05:56:39.747Z,30.37
2019-03-19T06:01:33.704Z,37.60
2019-03-19T06:06:27.671Z,27.47
2019-03-19T06:11:21.641Z,28.33
2019-03-19T06:16:15.641Z,32.40
2019-03-19T06:21:09.629Z,29.87
2019-03-19T06:26:03.609Z,28.87
2019-03-19T06:30:57.604Z,34.73
2019-03-19T06:35:51.703Z,33.80
2019-03-19T06:40:45.671Z,43.97
2019-03-19T06:45:39.753Z,34.10
2019-03-19T06:50:44.406Z,37.70
2019-03-19T06:55:29.594Z,33.07
2019-03-19T07:00:23.668Z,26.93
2019-03-19T07:05:18.552Z,37.47
2019-03-19T07:10:15.063Z,30.03
2019-03-19T07:15:16.838Z,36.07
2019-03-19T07:20:16.295Z,35.60
2019-03-19T07:25:10.556Z,31.43
2019-03-19T07:30:21.494Z,31.83
2019-03-19T07:35:15.582Z,34.00
2019-03-19T07:40:13.554Z,30.07
2019-03-19T07:45:15.684Z,33.85
2019-03-19T07:50:12.144Z,32.97
2019-03-19T07:55:06.324Z,31.00
2019-03-19T08:00:00.365Z,28.37
2019-03-19T08:04:54.573Z,30.30
2019-03-19T08:09:48.560Z,28.80
2019-03-19T08:14:42.543Z,24.97
2019-03-19T08:19:36.613Z,23.87
2019-03-19T08:24:30.569Z,26.57
2019-03-19T08:29:24.543Z,27.90
2019-03-19T08:34:18.680Z,26.30
2019-03-19T08:39:12.649Z,26.57
2019-03-19T08:44:06.664Z,28.03
2019-03-19T08:49:00.628Z,25.77
2019-03-19T08:53:54.783Z,27.10
2019-03-19T08:58:48.752Z,28.50
2019-03-19T09:03:42.753Z,28.33
2019-03-19T09:08:36.739Z,24.57
2019-03-19T09:13:30.776Z,19.80
2019-03-19T09:18:24.757Z,23.93
2019-03-19T09:23:18.728Z,22.20
2019-03-19T09:28:12.794Z,19.23
2019-03-19T09:33:06.781Z,22.27
2019-03-19T09:38:00.778Z,20.60
2019-03-19T09:42:54.829Z,22.97
2019-03-19T09:47:48.796Z,17.03
2019-03-19T09:52:42.989Z,18.63
2019-03-19T09:57:37.138Z,17.83
2019-03-19T10:02:31.310Z,22.83
2019-03-19T10:07:25.311Z,20.43
2019-03-19T10:12:19.312Z,15.40
2019-03-19T10:17:13.286Z,16.30
2019-03-19T10:22:07.268Z,13.57
2019-03-19T10:27:01.238Z,13.07
2019-03-19T10:31:55.353Z,12.57
2019-03-19T10:36:49.360Z,17.83
2019-03-19T10:41:43.399Z,10.03
2019-03-19T10:46:37.489Z,9.23
2019-03-19T10:51:31.464Z,9.67
2019-03-19T10:56:25.480Z,9.28
2019-03-19T11:01:19.467Z,5.95
2019-03-19T11:06:13.480Z,5.75
2019-03-19T11:11:07.442Z,7.58
2019-03-19T11:16:01.459Z,8.13
2019-03-19T11:20:55.431Z,7.55
2019-03-19T11:25:54.571Z,7.25
2019-03-19T11:30:45.450Z,7.37
2019-03-19T11:35:39.543Z,8.10
2019-03-19T11:40:33.524Z,7.60
2019-03-19T11:45:27.715Z,8.53
2019-03-19T11:50:30.093Z,8.18
2019-03-19T11:55:24.228Z,7.33
2019-03-19T12:00:42.218Z,7.08
2019-03-19T12:05:36.180Z,5.72
2019-03-19T12:10:30.293Z,9.75
2019-03-19T12:15:24.397Z,7.22
2019-03-19T12:20:20.662Z,6.25
2019-03-19T12:25:14.240Z,5.95
2019-03-19T12:30:22.435Z,7.45
2019-03-19T12:35:18.409Z,7.25
2019-03-19T12:40:22.390Z,8.48
2019-03-19T12:45:20.485Z,4.87
2019-03-19T12:50:16.707Z,7.67
2019-03-19T12:55:10.870Z,9.53
2019-03-19T13:00:14.482Z,6.92
2019-03-19T13:05:08.668Z,8.58
2019-03-19T13:10:12.315Z,7.08
2019-03-19T13:15:09.026Z,5.22
2019-03-19T13:20:06.296Z,5.90
2019-03-19T13:25:00.372Z,8.13
2019-03-19T13:29:54.348Z,8.40
2019-03-19T13:34:48.356Z,6.67
2019-03-19T13:39:42.521Z,5.75
2019-03-19T13:44:36.604Z,6.25
2019-03-19T13:49:30.583Z,9.28
2019-03-19T13:54:24.571Z,3.95
2019-03-19T13:59:18.511Z,5.50
2019-03-19T14:04:12.599Z,6.25
2019-03-19T14:09:06.875Z,7.28
2019-03-19T14:14:00.853Z,9.90
2019-03-19T14:18:54.924Z,10.13
2019-03-19T14:23:48.954Z,7.65
2019-03-19T14:28:42.970Z,7.62
2019-03-19T14:33:37.239Z,7.10
2019-03-19T14:38:31.309Z,5.58
2019-03-19T14:43:25.431Z,7.83
2019-03-19T14:48:19.433Z,5.33
2019-03-19T14:53:13.537Z,8.13
2019-03-19T14:58:07.516Z,6.58
2019-03-19T15:03:01.553Z,7.85
2019-03-19T15:07:55.508Z,6.30
2019-03-19T15:12:49.636Z,5.62
2019-03-19T15:17:44.081Z,8.65
2019-03-19T15:22:38.379Z,5.42
2019-03-19T15:27:32.357Z,8.50
2019-03-19T15:32:26.485Z,8.33
2019-03-19T15:37:20.466Z,9.55
2019-03-19T15:42:14.468Z,6.05
2019-03-19T15:47:08.428Z,10.60
2019-03-19T15:52:02.416Z,9.00
2019-03-19T15:56:56.512Z,8.23
2019-03-19T16:01:50.569Z,7.80
2019-03-19T16:06:44.557Z,7.53
2019-03-19T16:11:38.658Z,7.75
2019-03-19T16:16:32.704Z,9.10
2019-03-19T16:21:26.773Z,13.35
2019-03-19T16:26:20.817Z,11.38
2019-03-19T16:31:14.957Z,15.72
2019-03-19T16:36:08.976Z,10.00
2019-03-19T16:41:03.024Z,10.43
2019-03-19T16:45:57.194Z,10.90
2019-03-19T16:50:51.153Z,13.37
2019-03-19T16:55:45.128Z,10.50
2019-03-19T17:00:39.185Z,15.03
2019-03-19T17:05:33.257Z,10.93
2019-03-19T17:10:28.837Z,10.43
2019-03-19T17:15:22.912Z,10.67
2019-03-19T17:20:17.698Z,13.53
2019-03-19T17:25:20.214Z,18.07
2019-03-19T17:30:20.035Z,15.03
2019-03-19T17:35:14.168Z,14.33
2019-03-19T17:40:12.451Z,17.13
2019-03-19T17:45:08.360Z,18.20
2019-03-19T17:50:08.188Z,16.20
2019-03-19T17:55:02.374Z,22.67
2019-03-19T17:59:56.485Z,18.10
2019-03-19T18:04:50.479Z,15.40
2019-03-19T18:09:44.581Z,15.87
2019-03-19T18:14:38.670Z,23.57
2019-03-19T18:19:32.663Z,18.93
2019-03-19T18:24:26.635Z,20.73
2019-03-19T18:29:20.662Z,16.43
2019-03-19T18:34:14.781Z,20.17
2019-03-19T18:39:08.776Z,20.00
2019-03-19T18:44:03.064Z,17.23
2019-03-19T18:48:57.073Z,23.07
2019-03-19T18:53:51.225Z,27.23
2019-03-19T18:58:45.250Z,31.27
2019-03-19T19:03:40.353Z,25.87
2019-03-19T19:08:34.521Z,22.17
2019-03-19T19:13:28.515Z,25.03
2019-03-19T19:18:22.527Z,18.30
2019-03-19T19:23:16.659Z,19.73
2019-03-19T19:28:10.602Z,21.00
2019-03-19T19:33:04.751Z,21.27
2019-03-19T19:37:58.893Z,18.87
2019-03-19T19:42:53.112Z,21.60
2019-03-19T19:47:47.181Z,27.80
2019-03-19T19:52:41.334Z,32.23
2019-03-19T19:57:36.444Z,31.03
2019-03-19T20:02:30.426Z,31.57
2019-03-19T20:07:24.645Z,30.77
2019-03-19T20:12:18.755Z,31.60
2019-03-19T20:17:12.788Z,30.33
2019-03-19T20:22:06.794Z,27.10
2019-03-19T20:27:01.198Z,27.17
2019-03-19T20:31:55.386Z,32.13
2019-03-19T20:36:49.376Z,35.20
2019-03-19T20:41:43.366Z,34.33
2019-03-19T20:46:37.477Z,33.73
2019-03-19T20:51:31.695Z,34.37
2019-03-19T20:56:25.715Z,29.00
2019-03-19T21:01:19.929Z,31.30
2019-03-19T21:06:13.934Z,30.67
2019-03-19T21:11:08.016Z,32.07
2019-03-19T21:16:02.113Z,26.70
2019-03-19T21:20:56.116Z,24.90
2019-03-19T21:25:50.092Z,24.07
2019-03-19T21:30:44.207Z,24.93
2019-03-19T21:35:38.234Z,26.20
2019-03-19T21:40:32.287Z,27.83
2019-03-19T21:45:26.412Z,23.37
2019-03-19T21:50:21.788Z,23.93
2019-03-19T21:55:15.895Z,25.80
2019-03-19T22:00:13.896Z,24.83
2019-03-19T22:05:08.092Z,32.07
2019-03-19T22:15:17.034Z,24.50
2019-03-19T22:20:11.774Z,25.13
2019-03-19T22:25:14.082Z,24.23
2019-03-19T22:30:13.881Z,22.10
2019-03-19T22:35:08.094Z,25.83
2019-03-19T22:40:08.276Z,23.43
2019-03-19T22:45:04.569Z,21.23
2019-03-19T22:49:58.565Z,23.73
2019-03-19T22:54:52.517Z,18.53
2019-03-19T22:59:46.525Z,22.63
2019-03-19T23:04:40.590Z,22.33
2019-03-19T23:09:34.556Z,25.50
2019-03-19T23:14:28.650Z,22.70
2019-03-19T23:19:22.827Z,28.93
2019-03-19T23:24:16.789Z,22.20
2019-03-19T23:29:10.780Z,30.50
2019-03-19T23:34:04.868Z,33.30
2019-03-19T23:38:58.852Z,32.03
2019-03-19T23:43:52.837Z,32.03
2019-03-19T23:48:47.002Z,29.53
2019-03-19T23:53:40.961Z,28.73
2019-03-19T23:58:34.939Z,27.67
